sensor_id;sensor_type;location;lat;lon;timestamp;P1;durP1;ratioP1;P2;durP2;ratioP2
58244;SDS011;44550;43.864;25.986;2022-07-21T00:01:14;5.40;;;3.53;;
58244;SDS011;44550;43.864;25.986;2022-07-21T00:05:17;7.05;;;3.72;;
58244;SDS011;44550;43.864;25.986;2022-07-21T00:09:38;7.43;;;3.60;;
58244;SDS011;44550;43.864;25.986;2022-07-21T00:13:46;4.43;;;3.35;;
58244;SDS011;44550;43.864;25.986;2022-07-21T00:17:48;9.85;;;5.00;;
58244;SDS011;44550;43.864;25.986;2022-07-21T00:21:50;6.80;;;3.28;;
58244;SDS011;44550;43.864;25.986;2022-07-21T00:25:53;6.35;;;3.35;;
58244;SDS011;44550;43.864;25.986;2022-07-21T00:29:53;5.30;;;3.75;;
58244;SDS011;44550;43.864;25.986;2022-07-21T00:33:53;7.38;;;3.38;;
58244;SDS011;44550;43.864;25.986;2022-07-21T00:37:56;4.95;;;3.63;;
58244;SDS011;44550;43.864;25.986;2022-07-21T00:41:55;5.50;;;3.22;;
58244;SDS011;44550;43.864;25.986;2022-07-21T00:45:55;5.97;;;3.05;;
58244;SDS011;44550;43.864;25.986;2022-07-21T00:49:56;8.80;;;3.47;;
58244;SDS011;44550;43.864;25.986;2022-07-21T00:53:59;8.48;;;3.78;;
58244;SDS011;44550;43.864;25.986;2022-07-21T00:57:59;6.72;;;3.25;;
58244;SDS011;44550;43.864;25.986;2022-07-21T01:01:59;4.13;;;3.00;;
58244;SDS011;44550;43.864;25.986;2022-07-21T01:06:01;10.38;;;3.40;;
58244;SDS011;44550;43.864;25.986;2022-07-21T01:10:06;6.88;;;3.40;;
58244;SDS011;44550;43.864;25.986;2022-07-21T01:14:10;3.92;;;3.50;;
58244;SDS011;44550;43.864;25.986;2022-07-21T01:18:10;9.68;;;3.78;;
58244;SDS011;44550;43.864;25.986;2022-07-21T01:22:12;5.13;;;3.20;;
58244;SDS011;44550;43.864;25.986;2022-07-21T01:26:14;8.43;;;3.53;;
58244;SDS011;44550;43.864;25.986;2022-07-21T01:30:13;9.00;;;3.65;;
58244;SDS011;44550;43.864;25.986;2022-07-21T01:34:14;9.63;;;3.80;;
58244;SDS011;44550;43.864;25.986;2022-07-21T01:38:17;5.95;;;3.95;;
58244;SDS011;44550;43.864;25.986;2022-07-21T01:42:30;8.07;;;3.38;;
58244;SDS011;44550;43.864;25.986;2022-07-21T01:46:34;4.05;;;3.13;;
58244;SDS011;44550;43.864;25.986;2022-07-21T01:50:39;3.63;;;3.40;;
58244;SDS011;44550;43.864;25.986;2022-07-21T01:54:41;6.95;;;3.53;;
58244;SDS011;44550;43.864;25.986;2022-07-21T01:58:41;4.93;;;3.35;;
58244;SDS011;44550;43.864;25.986;2022-07-21T02:02:42;5.40;;;3.50;;
58244;SDS011;44550;43.864;25.986;2022-07-21T02:06:49;5.85;;;3.83;;
58244;SDS011;44550;43.864;25.986;2022-07-21T02:10:52;4.93;;;3.60;;
58244;SDS011;44550;43.864;25.986;2022-07-21T02:14:52;6.68;;;4.15;;
58244;SDS011;44550;43.864;25.986;2022-07-21T02:18:52;5.03;;;3.75;;
58244;SDS011;44550;43.864;25.986;2022-07-21T02:22:52;7.85;;;4.18;;
58244;SDS011;44550;43.864;25.986;2022-07-21T02:26:54;11.30;;;5.07;;
58244;SDS011;44550;43.864;25.986;2022-07-21T02:30:55;7.03;;;4.38;;
58244;SDS011;44550;43.864;25.986;2022-07-21T02:34:58;10.57;;;4.15;;
58244;SDS011;44550;43.864;25.986;2022-07-21T02:38:58;6.93;;;3.75;;
58244;SDS011;44550;43.864;25.986;2022-07-21T02:43:00;6.55;;;3.83;;
58244;SDS011;44550;43.864;25.986;2022-07-21T02:47:00;5.65;;;3.58;;
58244;SDS011;44550;43.864;25.986;2022-07-21T02:51:00;6.07;;;4.13;;
58244;SDS011;44550;43.864;25.986;2022-07-21T02:55:08;4.63;;;3.80;;
58244;SDS011;44550;43.864;25.986;2022-07-21T02:59:11;10.35;;;3.80;;
58244;SDS011;44550;43.864;25.986;2022-07-21T03:03:11;8.88;;;4.57;;
58244;SDS011;44550;43.864;25.986;2022-07-21T03:07:26;8.20;;;4.65;;
58244;SDS011;44550;43.864;25.986;2022-07-21T03:11:36;10.52;;;4.38;;
58244;SDS011;44550;43.864;25.986;2022-07-21T03:15:39;9.85;;;4.57;;
58244;SDS011;44550;43.864;25.986;2022-07-21T03:19:47;8.32;;;4.10;;
58244;SDS011;44550;43.864;25.986;2022-07-21T03:23:52;5.57;;;4.00;;
58244;SDS011;44550;43.864;25.986;2022-07-21T03:27:54;7.05;;;4.38;;
58244;SDS011;44550;43.864;25.986;2022-07-21T03:31:56;9.48;;;4.97;;
58244;SDS011;44550;43.864;25.986;2022-07-21T03:35:56;13.93;;;4.50;;
58244;SDS011;44550;43.864;25.986;2022-07-21T03:39:56;9.88;;;4.18;;
58244;SDS011;44550;43.864;25.986;2022-07-21T03:43:56;14.75;;;5.13;;
58244;SDS011;44550;43.864;25.986;2022-07-21T03:47:58;4.60;;;4.20;;
58244;SDS011;44550;43.864;25.986;2022-07-21T03:51:59;8.88;;;4.32;;
58244;SDS011;44550;43.864;25.986;2022-07-21T03:56:05;7.55;;;4.03;;
58244;SDS011;44550;43.864;25.986;2022-07-21T04:00:07;9.13;;;5.53;;
58244;SDS011;44550;43.864;25.986;2022-07-21T04:04:12;13.40;;;4.80;;
58244;SDS011;44550;43.864;25.986;2022-07-21T04:08:15;7.88;;;4.90;;
58244;SDS011;44550;43.864;25.986;2022-07-21T04:12:29;20.20;;;7.53;;
58244;SDS011;44550;43.864;25.986;2022-07-21T04:16:28;12.75;;;6.72;;
58244;SDS011;44550;43.864;25.986;2022-07-21T04:20:36;11.15;;;6.45;;
58244;SDS011;44550;43.864;25.986;2022-07-21T04:24:50;17.45;;;7.05;;
58244;SDS011;44550;43.864;25.986;2022-07-21T04:28:55;12.35;;;5.78;;
58244;SDS011;44550;43.864;25.986;2022-07-21T04:32:55;9.65;;;5.35;;
58244;SDS011;44550;43.864;25.986;2022-07-21T04:36:57;9.60;;;4.90;;
58244;SDS011;44550;43.864;25.986;2022-07-21T04:41:02;17.90;;;6.05;;
58244;SDS011;44550;43.864;25.986;2022-07-21T04:45:05;15.35;;;5.53;;
58244;SDS011;44550;43.864;25.986;2022-07-21T04:49:20;15.40;;;6.30;;
58244;SDS011;44550;43.864;25.986;2022-07-21T04:53:35;10.43;;;7.32;;
58244;SDS011;44550;43.864;25.986;2022-07-21T04:57:51;11.57;;;8.68;;
58244;SDS011;44550;43.864;25.986;2022-07-21T05:02:34;16.90;;;11.07;;
58244;SDS011;44550;43.864;25.986;2022-07-21T05:07:03;28.20;;;14.55;;
58244;SDS011;44550;43.864;25.986;2022-07-21T05:11:58;29.88;;;11.95;;
58244;SDS011;44550;43.864;25.986;2022-07-21T05:22:11;33.05;;;14.90;;
58244;SDS011;44550;43.864;25.986;2022-07-21T05:27:42;62.35;;;33.58;;
58244;SDS011;44550;43.864;25.986;2022-07-21T05:32:58;54.63;;;31.52;;
58244;SDS011;44550;43.864;25.986;2022-07-21T05:38:28;46.67;;;25.83;;
58244;SDS011;44550;43.864;25.986;2022-07-21T05:43:52;42.65;;;21.77;;
58244;SDS011;44550;43.864;25.986;2022-07-21T05:48:13;31.38;;;15.10;;
58244;SDS011;44550;43.864;25.986;2022-07-21T05:52:22;19.98;;;11.18;;
58244;SDS011;44550;43.864;25.986;2022-07-21T05:56:22;21.02;;;8.90;;
58244;SDS011;44550;43.864;25.986;2022-07-21T06:00:31;10.90;;;6.95;;
58244;SDS011;44550;43.864;25.986;2022-07-21T06:04:37;12.75;;;9.35;;
58244;SDS011;44550;43.864;25.986;2022-07-21T06:08:40;13.70;;;7.68;;
58244;SDS011;44550;43.864;25.986;2022-07-21T06:17:47;12.60;;;6.18;;
58244;SDS011;44550;43.864;25.986;2022-07-21T06:21:51;13.75;;;6.65;;
58244;SDS011;44550;43.864;25.986;2022-07-21T06:25:54;13.50;;;5.60;;
58244;SDS011;44550;43.864;25.986;2022-07-21T06:29:55;9.90;;;3.60;;
58244;SDS011;44550;43.864;25.986;2022-07-21T06:38:48;7.35;;;3.65;;
58244;SDS011;44550;43.864;25.986;2022-07-21T06:42:49;18.05;;;4.70;;
58244;SDS011;44550;43.864;25.986;2022-07-21T06:47:09;10.07;;;4.32;;
58244;SDS011;44550;43.864;25.986;2022-07-21T06:51:16;6.90;;;3.88;;
58244;SDS011;44550;43.864;25.986;2022-07-21T06:55:16;5.03;;;3.58;;
58244;SDS011;44550;43.864;25.986;2022-07-21T06:59:16;5.88;;;3.83;;
58244;SDS011;44550;43.864;25.986;2022-07-21T07:03:19;12.88;;;4.22;;
58244;SDS011;44550;43.864;25.986;2022-07-21T07:07:22;4.72;;;4.03;;
58244;SDS011;44550;43.864;25.986;2022-07-21T07:11:21;10.05;;;4.30;;
58244;SDS011;44550;43.864;25.986;2022-07-21T07:15:25;6.97;;;4.07;;
58244;SDS011;44550;43.864;25.986;2022-07-21T07:19:31;7.65;;;4.13;;
58244;SDS011;44550;43.864;25.986;2022-07-21T07:23:52;14.48;;;4.03;;
58244;SDS011;44550;43.864;25.986;2022-07-21T07:28:10;11.50;;;5.05;;
58244;SDS011;44550;43.864;25.986;2022-07-21T07:32:15;5.60;;;4.40;;
58244;SDS011;44550;43.864;25.986;2022-07-21T07:36:28;5.82;;;5.07;;
58244;SDS011;44550;43.864;25.986;2022-07-21T07:40:47;10.90;;;5.15;;
58244;SDS011;44550;43.864;25.986;2022-07-21T07:44:50;11.85;;;4.85;;
58244;SDS011;44550;43.864;25.986;2022-07-21T07:49:34;20.02;;;8.43;;
58244;SDS011;44550;43.864;25.986;2022-07-21T07:53:59;6.35;;;3.88;;
58244;SDS011;44550;43.864;25.986;2022-07-21T07:58:23;19.98;;;6.55;;
58244;SDS011;44550;43.864;25.986;2022-07-21T08:02:26;5.80;;;2.72;;
58244;SDS011;44550;43.864;25.986;2022-07-21T08:06:54;7.07;;;3.60;;
58244;SDS011;44550;43.864;25.986;2022-07-21T08:11:04;10.32;;;3.80;;
58244;SDS011;44550;43.864;25.986;2022-07-21T08:15:13;13.27;;;5.55;;
58244;SDS011;44550;43.864;25.986;2022-07-21T08:19:23;18.98;;;7.72;;
58244;SDS011;44550;43.864;25.986;2022-07-21T08:23:35;11.25;;;4.30;;
58244;SDS011;44550;43.864;25.986;2022-07-21T08:27:36;5.20;;;3.38;;
58244;SDS011;44550;43.864;25.986;2022-07-21T08:31:43;7.28;;;3.97;;
58244;SDS011;44550;43.864;25.986;2022-07-21T08:35:43;11.85;;;4.10;;
58244;SDS011;44550;43.864;25.986;2022-07-21T08:39:42;7.07;;;3.97;;
58244;SDS011;44550;43.864;25.986;2022-07-21T08:43:48;19.58;;;8.75;;
58244;SDS011;44550;43.864;25.986;2022-07-21T08:47:59;8.95;;;4.43;;
58244;SDS011;44550;43.864;25.986;2022-07-21T08:52:00;5.97;;;5.28;;
58244;SDS011;44550;43.864;25.986;2022-07-21T08:56:12;7.45;;;4.35;;
58244;SDS011;44550;43.864;25.986;2022-07-21T09:00:24;6.55;;;4.40;;
58244;SDS011;44550;43.864;25.986;2022-07-21T09:04:31;14.82;;;5.00;;
58244;SDS011;44550;43.864;25.986;2022-07-21T09:17:01;12.43;;;4.70;;
58244;SDS011;44550;43.864;25.986;2022-07-21T09:21:11;13.13;;;8.43;;
58244;SDS011;44550;43.864;25.986;2022-07-21T09:25:10;13.60;;;9.88;;
58244;SDS011;44550;43.864;25.986;2022-07-21T09:29:37;6.90;;;6.22;;
58244;SDS011;44550;43.864;25.986;2022-07-21T09:33:39;7.30;;;4.47;;
58244;SDS011;44550;43.864;25.986;2022-07-21T09:37:43;16.67;;;6.72;;
58244;SDS011;44550;43.864;25.986;2022-07-21T09:41:44;5.78;;;4.00;;
58244;SDS011;44550;43.864;25.986;2022-07-21T09:45:44;7.60;;;4.22;;
58244;SDS011;44550;43.864;25.986;2022-07-21T09:49:49;6.65;;;3.90;;
58244;SDS011;44550;43.864;25.986;2022-07-21T09:54:12;6.22;;;4.53;;
58244;SDS011;44550;43.864;25.986;2022-07-21T09:58:11;9.00;;;4.95;;
58244;SDS011;44550;43.864;25.986;2022-07-21T10:02:14;11.15;;;4.22;;
58244;SDS011;44550;43.864;25.986;2022-07-21T10:06:20;5.35;;;3.97;;
58244;SDS011;44550;43.864;25.986;2022-07-21T10:10:27;5.13;;;3.40;;
58244;SDS011;44550;43.864;25.986;2022-07-21T10:15:19;4.97;;;4.05;;
58244;SDS011;44550;43.864;25.986;2022-07-21T10:19:19;13.75;;;4.03;;
58244;SDS011;44550;43.864;25.986;2022-07-21T10:27:38;4.65;;;4.05;;
58244;SDS011;44550;43.864;25.986;2022-07-21T10:32:09;24.52;;;4.45;;
58244;SDS011;44550;43.864;25.986;2022-07-21T10:36:40;6.85;;;3.65;;
58244;SDS011;44550;43.864;25.986;2022-07-21T10:40:41;4.15;;;3.35;;
58244;SDS011;44550;43.864;25.986;2022-07-21T10:44:47;3.97;;;3.55;;
58244;SDS011;44550;43.864;25.986;2022-07-21T10:48:48;6.50;;;3.78;;
58244;SDS011;44550;43.864;25.986;2022-07-21T10:52:58;4.13;;;3.72;;
58244;SDS011;44550;43.864;25.986;2022-07-21T11:01:30;9.07;;;3.20;;
58244;SDS011;44550;43.864;25.986;2022-07-21T11:05:30;5.22;;;3.35;;
58244;SDS011;44550;43.864;25.986;2022-07-21T11:09:37;4.50;;;3.78;;
58244;SDS011;44550;43.864;25.986;2022-07-21T11:14:14;8.77;;;4.15;;
58244;SDS011;44550;43.864;25.986;2022-07-21T11:18:34;6.47;;;3.95;;
58244;SDS011;44550;43.864;25.986;2022-07-21T11:22:56;6.35;;;3.92;;
58244;SDS011;44550;43.864;25.986;2022-07-21T11:27:06;6.10;;;4.35;;
58244;SDS011;44550;43.864;25.986;2022-07-21T11:35:54;5.05;;;3.05;;
58244;SDS011;44550;43.864;25.986;2022-07-21T11:40:15;7.43;;;3.95;;
58244;SDS011;44550;43.864;25.986;2022-07-21T11:44:47;3.85;;;3.45;;
58244;SDS011;44550;43.864;25.986;2022-07-21T11:48:48;4.78;;;3.45;;
58244;SDS011;44550;43.864;25.986;2022-07-21T11:53:01;5.75;;;3.70;;
58244;SDS011;44550;43.864;25.986;2022-07-21T11:57:04;5.75;;;3.80;;
58244;SDS011;44550;43.864;25.986;2022-07-21T12:01:05;6.93;;;4.32;;
58244;SDS011;44550;43.864;25.986;2022-07-21T12:05:09;7.78;;;3.95;;
58244;SDS011;44550;43.864;25.986;2022-07-21T12:09:13;6.28;;;4.05;;
58244;SDS011;44550;43.864;25.986;2022-07-21T12:13:12;8.80;;;3.78;;
58244;SDS011;44550;43.864;25.986;2022-07-21T12:17:12;10.02;;;3.42;;
58244;SDS011;44550;43.864;25.986;2022-07-21T12:21:12;6.00;;;3.67;;
58244;SDS011;44550;43.864;25.986;2022-07-21T12:25:18;3.53;;;3.22;;
58244;SDS011;44550;43.864;25.986;2022-07-21T12:29:39;4.88;;;4.05;;
58244;SDS011;44550;43.864;25.986;2022-07-21T12:33:42;13.10;;;3.95;;
58244;SDS011;44550;43.864;25.986;2022-07-21T12:38:04;7.38;;;4.18;;
58244;SDS011;44550;43.864;25.986;2022-07-21T12:42:28;8.52;;;3.42;;
58244;SDS011;44550;43.864;25.986;2022-07-21T12:46:29;6.90;;;3.75;;
58244;SDS011;44550;43.864;25.986;2022-07-21T12:50:32;11.32;;;4.72;;
58244;SDS011;44550;43.864;25.986;2022-07-21T12:54:32;8.18;;;4.00;;
58244;SDS011;44550;43.864;25.986;2022-07-21T12:58:34;8.50;;;3.92;;
58244;SDS011;44550;43.864;25.986;2022-07-21T13:02:44;4.50;;;3.90;;
58244;SDS011;44550;43.864;25.986;2022-07-21T13:06:45;6.15;;;4.00;;
58244;SDS011;44550;43.864;25.986;2022-07-21T13:10:47;6.80;;;3.60;;
58244;SDS011;44550;43.864;25.986;2022-07-21T13:14:51;5.20;;;3.85;;
58244;SDS011;44550;43.864;25.986;2022-07-21T13:18:51;4.22;;;3.83;;
58244;SDS011;44550;43.864;25.986;2022-07-21T13:22:53;5.47;;;4.07;;
58244;SDS011;44550;43.864;25.986;2022-07-21T13:26:52;8.52;;;3.92;;
58244;SDS011;44550;43.864;25.986;2022-07-21T13:30:54;11.75;;;5.63;;
58244;SDS011;44550;43.864;25.986;2022-07-21T13:34:54;5.88;;;4.20;;
58244;SDS011;44550;43.864;25.986;2022-07-21T13:39:14;4.47;;;4.00;;
58244;SDS011;44550;43.864;25.986;2022-07-21T13:43:35;7.43;;;3.60;;
58244;SDS011;44550;43.864;25.986;2022-07-21T13:47:39;10.02;;;3.47;;
58244;SDS011;44550;43.864;25.986;2022-07-21T13:51:40;5.47;;;4.28;;
58244;SDS011;44550;43.864;25.986;2022-07-21T13:55:40;7.10;;;3.95;;
58244;SDS011;44550;43.864;25.986;2022-07-21T13:59:40;6.55;;;4.35;;
58244;SDS011;44550;43.864;25.986;2022-07-21T14:03:43;4.93;;;4.40;;
58244;SDS011;44550;43.864;25.986;2022-07-21T14:07:44;9.48;;;4.18;;
58244;SDS011;44550;43.864;25.986;2022-07-21T14:11:45;6.50;;;4.40;;
58244;SDS011;44550;43.864;25.986;2022-07-21T14:15:47;9.23;;;4.28;;
58244;SDS011;44550;43.864;25.986;2022-07-21T14:19:50;11.68;;;4.82;;
58244;SDS011;44550;43.864;25.986;2022-07-21T14:23:50;6.68;;;4.88;;
58244;SDS011;44550;43.864;25.986;2022-07-21T14:28:11;6.55;;;3.55;;
58244;SDS011;44550;43.864;25.986;2022-07-21T14:32:11;10.50;;;4.40;;
58244;SDS011;44550;43.864;25.986;2022-07-21T14:36:15;6.13;;;4.57;;
58244;SDS011;44550;43.864;25.986;2022-07-21T14:40:16;9.13;;;4.00;;
58244;SDS011;44550;43.864;25.986;2022-07-21T14:44:20;8.50;;;4.70;;
58244;SDS011;44550;43.864;25.986;2022-07-21T14:48:20;9.80;;;4.20;;
58244;SDS011;44550;43.864;25.986;2022-07-21T14:52:24;7.32;;;4.40;;
58244;SDS011;44550;43.864;25.986;2022-07-21T14:56:25;7.82;;;4.22;;
58244;SDS011;44550;43.864;25.986;2022-07-21T15:00:45;6.13;;;3.78;;
58244;SDS011;44550;43.864;25.986;2022-07-21T15:04:46;11.98;;;4.45;;
58244;SDS011;44550;43.864;25.986;2022-07-21T15:08:48;7.60;;;3.60;;
58244;SDS011;44550;43.864;25.986;2022-07-21T15:12:48;9.88;;;4.20;;
58244;SDS011;44550;43.864;25.986;2022-07-21T15:16:49;10.40;;;4.88;;
58244;SDS011;44550;43.864;25.986;2022-07-21T15:20:49;9.88;;;4.07;;
58244;SDS011;44550;43.864;25.986;2022-07-21T15:24:51;6.93;;;4.05;;
58244;SDS011;44550;43.864;25.986;2022-07-21T15:28:51;7.18;;;4.10;;
58244;SDS011;44550;43.864;25.986;2022-07-21T15:32:50;8.30;;;4.38;;
58244;SDS011;44550;43.864;25.986;2022-07-21T15:36:51;4.68;;;3.92;;
58244;SDS011;44550;43.864;25.986;2022-07-21T15:40:53;10.10;;;3.90;;
58244;SDS011;44550;43.864;25.986;2022-07-21T15:44:57;8.25;;;3.70;;
58244;SDS011;44550;43.864;25.986;2022-07-21T15:48:58;10.00;;;6.28;;
58244;SDS011;44550;43.864;25.986;2022-07-21T15:52:57;16.45;;;5.90;;
58244;SDS011;44550;43.864;25.986;2022-07-21T15:56:59;10.45;;;5.20;;
58244;SDS011;44550;43.864;25.986;2022-07-21T16:01:00;5.93;;;4.15;;
58244;SDS011;44550;43.864;25.986;2022-07-21T16:04:59;10.23;;;4.35;;
58244;SDS011;44550;43.864;25.986;2022-07-21T16:08:59;10.82;;;5.65;;
58244;SDS011;44550;43.864;25.986;2022-07-21T16:13:01;24.30;;;15.90;;
58244;SDS011;44550;43.864;25.986;2022-07-21T16:17:01;10.18;;;6.80;;
58244;SDS011;44550;43.864;25.986;2022-07-21T16:21:01;28.23;;;19.83;;
58244;SDS011;44550;43.864;25.986;2022-07-21T16:25:00;43.97;;;28.95;;
58244;SDS011;44550;43.864;25.986;2022-07-21T16:29:02;50.45;;;37.35;;
58244;SDS011;44550;43.864;25.986;2022-07-21T16:33:02;60.35;;;31.90;;
58244;SDS011;44550;43.864;25.986;2022-07-21T16:37:02;46.88;;;30.17;;
58244;SDS011;44550;43.864;25.986;2022-07-21T16:41:15;22.00;;;8.15;;
58244;SDS011;44550;43.864;25.986;2022-07-21T16:45:20;10.18;;;5.60;;
58244;SDS011;44550;43.864;25.986;2022-07-21T16:49:25;13.90;;;4.80;;
58244;SDS011;44550;43.864;25.986;2022-07-21T16:53:30;10.82;;;4.20;;
58244;SDS011;44550;43.864;25.986;2022-07-21T16:57:37;6.15;;;4.28;;
58244;SDS011;44550;43.864;25.986;2022-07-21T17:01:46;20.73;;;6.20;;
58244;SDS011;44550;43.864;25.986;2022-07-21T17:05:50;23.23;;;7.15;;
58244;SDS011;44550;43.864;25.986;2022-07-21T17:09:53;12.25;;;5.80;;
58244;SDS011;44550;43.864;25.986;2022-07-21T17:14:01;21.63;;;5.77;;
58244;SDS011;44550;43.864;25.986;2022-07-21T17:18:15;7.05;;;5.03;;
58244;SDS011;44550;43.864;25.986;2022-07-21T17:22:17;9.65;;;4.53;;
58244;SDS011;44550;43.864;25.986;2022-07-21T17:26:19;8.50;;;5.03;;
58244;SDS011;44550;43.864;25.986;2022-07-21T17:30:26;13.30;;;4.68;;
58244;SDS011;44550;43.864;25.986;2022-07-21T17:34:31;7.53;;;4.22;;
58244;SDS011;44550;43.864;25.986;2022-07-21T17:38:32;8.00;;;4.18;;
58244;SDS011;44550;43.864;25.986;2022-07-21T17:42:46;9.68;;;4.22;;
58244;SDS011;44550;43.864;25.986;2022-07-21T17:46:54;9.90;;;4.32;;
58244;SDS011;44550;43.864;25.986;2022-07-21T17:51:04;6.03;;;5.32;;
58244;SDS011;44550;43.864;25.986;2022-07-21T17:55:35;5.07;;;3.72;;
58244;SDS011;44550;43.864;25.986;2022-07-21T17:59:50;7.68;;;4.25;;
58244;SDS011;44550;43.864;25.986;2022-07-21T18:04:03;6.53;;;4.80;;
58244;SDS011;44550;43.864;25.986;2022-07-21T18:08:30;7.10;;;3.78;;
58244;SDS011;44550;43.864;25.986;2022-07-21T18:12:38;7.78;;;4.43;;
58244;SDS011;44550;43.864;25.986;2022-07-21T18:16:51;9.52;;;5.00;;
58244;SDS011;44550;43.864;25.986;2022-07-21T18:20:56;11.18;;;5.43;;
58244;SDS011;44550;43.864;25.986;2022-07-21T18:25:08;13.35;;;4.72;;
58244;SDS011;44550;43.864;25.986;2022-07-21T18:29:11;14.70;;;4.70;;
58244;SDS011;44550;43.864;25.986;2022-07-21T18:33:14;8.45;;;5.15;;
58244;SDS011;44550;43.864;25.986;2022-07-21T18:37:40;11.32;;;5.35;;
58244;SDS011;44550;43.864;25.986;2022-07-21T18:41:50;7.75;;;4.65;;
58244;SDS011;44550;43.864;25.986;2022-07-21T18:45:51;10.77;;;4.77;;
58244;SDS011;44550;43.864;25.986;2022-07-21T18:49:53;8.48;;;4.30;;
58244;SDS011;44550;43.864;25.986;2022-07-21T18:53:56;9.05;;;4.72;;
58244;SDS011;44550;43.864;25.986;2022-07-21T18:58:11;9.95;;;5.20;;
58244;SDS011;44550;43.864;25.986;2022-07-21T19:02:18;9.52;;;5.70;;
58244;SDS011;44550;43.864;25.986;2022-07-21T19:06:55;7.45;;;4.72;;
58244;SDS011;44550;43.864;25.986;2022-07-21T19:11:58;11.77;;;6.00;;
58244;SDS011;44550;43.864;25.986;2022-07-21T19:16:00;9.85;;;4.57;;
58244;SDS011;44550;43.864;25.986;2022-07-21T19:20:00;7.55;;;4.68;;
58244;SDS011;44550;43.864;25.986;2022-07-21T19:24:00;7.63;;;4.47;;
58244;SDS011;44550;43.864;25.986;2022-07-21T19:28:01;5.82;;;4.05;;
58244;SDS011;44550;43.864;25.986;2022-07-21T19:32:04;8.05;;;4.35;;
58244;SDS011;44550;43.864;25.986;2022-07-21T19:36:05;5.20;;;4.55;;
58244;SDS011;44550;43.864;25.986;2022-07-21T19:40:05;10.18;;;4.18;;
58244;SDS011;44550;43.864;25.986;2022-07-21T19:44:05;9.05;;;4.63;;
58244;SDS011;44550;43.864;25.986;2022-07-21T19:48:07;7.22;;;5.35;;
58244;SDS011;44550;43.864;25.986;2022-07-21T19:52:14;11.52;;;4.93;;
58244;SDS011;44550;43.864;25.986;2022-07-21T19:56:14;6.50;;;4.45;;
58244;SDS011;44550;43.864;25.986;2022-07-21T20:00:15;9.13;;;4.60;;
58244;SDS011;44550;43.864;25.986;2022-07-21T20:04:20;7.20;;;4.10;;
58244;SDS011;44550;43.864;25.986;2022-07-21T20:08:20;8.77;;;4.10;;
58244;SDS011;44550;43.864;25.986;2022-07-21T20:12:41;12.00;;;5.63;;
58244;SDS011;44550;43.864;25.986;2022-07-21T20:16:44;9.85;;;4.60;;
58244;SDS011;44550;43.864;25.986;2022-07-21T20:21:16;8.02;;;4.30;;
58244;SDS011;44550;43.864;25.986;2022-07-21T20:25:17;7.15;;;4.53;;
58244;SDS011;44550;43.864;25.986;2022-07-21T20:29:16;8.48;;;4.70;;
58244;SDS011;44550;43.864;25.986;2022-07-21T20:33:19;5.50;;;4.57;;
58244;SDS011;44550;43.864;25.986;2022-07-21T20:37:23;7.15;;;4.55;;
58244;SDS011;44550;43.864;25.986;2022-07-21T20:41:23;7.07;;;4.03;;
58244;SDS011;44550;43.864;25.986;2022-07-21T20:45:23;11.55;;;4.85;;
58244;SDS011;44550;43.864;25.986;2022-07-21T20:49:23;10.55;;;4.75;;
58244;SDS011;44550;43.864;25.986;2022-07-21T20:53:42;10.02;;;4.38;;
58244;SDS011;44550;43.864;25.986;2022-07-21T20:57:46;5.70;;;4.32;;
58244;SDS011;44550;43.864;25.986;2022-07-21T21:01:49;10.50;;;4.53;;
58244;SDS011;44550;43.864;25.986;2022-07-21T21:10:45;5.07;;;4.57;;
58244;SDS011;44550;43.864;25.986;2022-07-21T21:15:10;7.75;;;4.50;;
58244;SDS011;44550;43.864;25.986;2022-07-21T21:19:10;5.95;;;4.95;;
58244;SDS011;44550;43.864;25.986;2022-07-21T21:23:10;5.55;;;4.95;;
58244;SDS011;44550;43.864;25.986;2022-07-21T21:27:13;6.47;;;4.68;;
58244;SDS011;44550;43.864;25.986;2022-07-21T21:31:13;7.95;;;4.35;;
58244;SDS011;44550;43.864;25.986;2022-07-21T21:35:14;11.82;;;4.88;;
58244;SDS011;44550;43.864;25.986;2022-07-21T21:39:13;8.88;;;4.63;;
58244;SDS011;44550;43.864;25.986;2022-07-21T21:43:16;6.05;;;4.38;;
58244;SDS011;44550;43.864;25.986;2022-07-21T21:47:16;7.97;;;5.15;;
58244;SDS011;44550;43.864;25.986;2022-07-21T21:51:16;9.10;;;4.55;;
58244;SDS011;44550;43.864;25.986;2022-07-21T21:55:16;5.45;;;4.95;;
58244;SDS011;44550;43.864;25.986;2022-07-21T21:59:19;9.23;;;5.60;;
58244;SDS011;44550;43.864;25.986;2022-07-21T22:03:19;9.43;;;5.93;;
58244;SDS011;44550;43.864;25.986;2022-07-21T22:07:19;7.43;;;4.70;;
58244;SDS011;44550;43.864;25.986;2022-07-21T22:11:19;5.20;;;3.90;;
58244;SDS011;44550;43.864;25.986;2022-07-21T22:15:32;8.30;;;5.38;;
58244;SDS011;44550;43.864;25.986;2022-07-21T22:19:32;9.35;;;5.43;;
58244;SDS011;44550;43.864;25.986;2022-07-21T22:23:32;10.57;;;4.68;;
58244;SDS011;44550;43.864;25.986;2022-07-21T22:27:34;7.63;;;4.40;;
58244;SDS011;44550;43.864;25.986;2022-07-21T22:31:37;9.70;;;4.78;;
58244;SDS011;44550;43.864;25.986;2022-07-21T22:35:41;8.35;;;4.78;;
58244;SDS011;44550;43.864;25.986;2022-07-21T22:39:41;9.63;;;4.28;;
58244;SDS011;44550;43.864;25.986;2022-07-21T22:43:41;11.55;;;4.80;;
58244;SDS011;44550;43.864;25.986;2022-07-21T22:47:44;9.95;;;4.80;;
58244;SDS011;44550;43.864;25.986;2022-07-21T22:51:44;8.50;;;5.45;;
58244;SDS011;44550;43.864;25.986;2022-07-21T22:55:44;8.00;;;5.25;;
58244;SDS011;44550;43.864;25.986;2022-07-21T22:59:44;6.30;;;5.30;;
58244;SDS011;44550;43.864;25.986;2022-07-21T23:03:46;10.82;;;5.40;;
58244;SDS011;44550;43.864;25.986;2022-07-21T23:07:46;7.78;;;4.80;;
58244;SDS011;44550;43.864;25.986;2022-07-21T23:11:46;6.35;;;4.50;;
58244;SDS011;44550;43.864;25.986;2022-07-21T23:15:47;11.88;;;5.20;;
58244;SDS011;44550;43.864;25.986;2022-07-21T23:19:48;11.70;;;5.22;;
58244;SDS011;44550;43.864;25.986;2022-07-21T23:23:48;7.90;;;5.07;;
58244;SDS011;44550;43.864;25.986;2022-07-21T23:27:48;7.38;;;4.57;;
58244;SDS011;44550;43.864;25.986;2022-07-21T23:31:48;10.45;;;5.20;;
58244;SDS011;44550;43.864;25.986;2022-07-21T23:35:53;7.53;;;5.03;;
58244;SDS011;44550;43.864;25.986;2022-07-21T23:39:54;8.80;;;5.15;;
58244;SDS011;44550;43.864;25.986;2022-07-21T23:43:54;9.55;;;4.30;;
58244;SDS011;44550;43.864;25.986;2022-07-21T23:47:54;6.68;;;5.75;;
58244;SDS011;44550;43.864;25.986;2022-07-21T23:51:59;7.63;;;4.97;;
58244;SDS011;44550;43.864;25.986;2022-07-21T23:55:59;6.28;;;4.80;;
58244;SDS011;44550;43.864;25.986;2022-07-21T23:59:59;6.65;;;4.53;;
